sensor_id;sensor_type;location;lat;lon;timestamp;P1;durP1;ratioP1;P2;durP2;ratioP2
16531;SDS011;66872;63.142;14.482;2023-06-19T00:01:47;4.60;;;4.20;;
16531;SDS011;66872;63.142;14.482;2023-06-19T00:04:12;5.03;;;4.63;;
16531;SDS011;66872;63.142;14.482;2023-06-19T00:06:38;5.15;;;4.75;;
16531;SDS011;66872;63.142;14.482;2023-06-19T00:09:04;4.97;;;4.57;;
16531;SDS011;66872;63.142;14.482;2023-06-19T00:11:30;5.07;;;4.57;;
16531;SDS011;66872;63.142;14.482;2023-06-19T00:13:55;4.80;;;4.40;;
16531;SDS011;66872;63.142;14.482;2023-06-19T00:16:21;4.95;;;4.55;;
16531;SDS011;66872;63.142;14.482;2023-06-19T00:18:50;5.15;;;4.75;;
16531;SDS011;66872;63.142;14.482;2023-06-19T00:21:16;5.40;;;4.90;;
16531;SDS011;66872;63.142;14.482;2023-06-19T00:23:42;5.10;;;4.70;;
16531;SDS011;66872;63.142;14.482;2023-06-19T00:26:08;5.25;;;4.85;;
16531;SDS011;66872;63.142;14.482;2023-06-19T00:28:34;4.95;;;4.55;;
16531;SDS011;66872;63.142;14.482;2023-06-19T00:31:04;5.13;;;4.72;;
16531;SDS011;66872;63.142;14.482;2023-06-19T00:33:31;5.03;;;4.60;;
16531;SDS011;66872;63.142;14.482;2023-06-19T00:35:57;5.40;;;5.00;;
16531;SDS011;66872;63.142;14.482;2023-06-19T00:38:23;5.43;;;4.95;;
16531;SDS011;66872;63.142;14.482;2023-06-19T00:40:48;5.53;;;5.03;;
16531;SDS011;66872;63.142;14.482;2023-06-19T00:43:14;5.20;;;4.80;;
16531;SDS011;66872;63.142;14.482;2023-06-19T00:45:40;4.93;;;4.53;;
16531;SDS011;66872;63.142;14.482;2023-06-19T00:48:05;5.20;;;4.70;;
16531;SDS011;66872;63.142;14.482;2023-06-19T00:50:31;4.80;;;4.40;;
16531;SDS011;66872;63.142;14.482;2023-06-19T00:52:58;4.72;;;4.32;;
16531;SDS011;66872;63.142;14.482;2023-06-19T00:55:25;5.10;;;4.70;;
16531;SDS011;66872;63.142;14.482;2023-06-19T00:57:54;4.95;;;4.55;;
16531;SDS011;66872;63.142;14.482;2023-06-19T01:00:20;5.13;;;4.72;;
16531;SDS011;66872;63.142;14.482;2023-06-19T01:02:46;5.10;;;4.70;;
16531;SDS011;66872;63.142;14.482;2023-06-19T01:05:12;5.10;;;4.70;;
16531;SDS011;66872;63.142;14.482;2023-06-19T01:07:53;4.85;;;4.45;;
16531;SDS011;66872;63.142;14.482;2023-06-19T01:10:40;4.97;;;4.57;;
16531;SDS011;66872;63.142;14.482;2023-06-19T01:13:17;5.32;;;4.82;;
16531;SDS011;66872;63.142;14.482;2023-06-19T01:15:48;4.85;;;4.45;;
16531;SDS011;66872;63.142;14.482;2023-06-19T01:18:14;5.30;;;4.90;;
16531;SDS011;66872;63.142;14.482;2023-06-19T01:20:40;5.20;;;4.75;;
16531;SDS011;66872;63.142;14.482;2023-06-19T01:23:10;5.07;;;4.68;;
16531;SDS011;66872;63.142;14.482;2023-06-19T01:25:36;4.93;;;4.53;;
16531;SDS011;66872;63.142;14.482;2023-06-19T01:28:02;5.38;;;4.97;;
16531;SDS011;66872;63.142;14.482;2023-06-19T01:30:31;4.90;;;4.50;;
16531;SDS011;66872;63.142;14.482;2023-06-19T01:33:03;5.05;;;4.65;;
16531;SDS011;66872;63.142;14.482;2023-06-19T01:35:40;4.50;;;4.10;;
16531;SDS011;66872;63.142;14.482;2023-06-19T01:38:08;5.20;;;4.80;;
16531;SDS011;66872;63.142;14.482;2023-06-19T01:40:35;4.88;;;4.47;;
16531;SDS011;66872;63.142;14.482;2023-06-19T01:43:02;5.57;;;5.07;;
16531;SDS011;66872;63.142;14.482;2023-06-19T01:45:29;5.10;;;4.70;;
16531;SDS011;66872;63.142;14.482;2023-06-19T01:47:55;5.28;;;4.78;;
16531;SDS011;66872;63.142;14.482;2023-06-19T01:50:22;5.20;;;4.80;;
16531;SDS011;66872;63.142;14.482;2023-06-19T01:52:48;4.75;;;4.35;;
16531;SDS011;66872;63.142;14.482;2023-06-19T01:55:14;5.20;;;4.80;;
16531;SDS011;66872;63.142;14.482;2023-06-19T01:57:40;5.15;;;4.72;;
16531;SDS011;66872;63.142;14.482;2023-06-19T02:00:06;4.80;;;4.40;;
16531;SDS011;66872;63.142;14.482;2023-06-19T02:02:35;5.45;;;4.95;;
16531;SDS011;66872;63.142;14.482;2023-06-19T02:05:02;5.22;;;4.82;;
16531;SDS011;66872;63.142;14.482;2023-06-19T02:07:28;5.00;;;4.60;;
16531;SDS011;66872;63.142;14.482;2023-06-19T02:09:53;5.00;;;4.60;;
16531;SDS011;66872;63.142;14.482;2023-06-19T02:12:19;4.97;;;4.57;;
16531;SDS011;66872;63.142;14.482;2023-06-19T02:14:45;5.03;;;4.63;;
16531;SDS011;66872;63.142;14.482;2023-06-19T02:17:10;4.93;;;4.53;;
16531;SDS011;66872;63.142;14.482;2023-06-19T02:19:36;5.43;;;5.03;;
16531;SDS011;66872;63.142;14.482;2023-06-19T02:22:02;5.13;;;4.63;;
16531;SDS011;66872;63.142;14.482;2023-06-19T02:24:27;5.35;;;4.95;;
16531;SDS011;66872;63.142;14.482;2023-06-19T02:26:53;5.20;;;4.80;;
16531;SDS011;66872;63.142;14.482;2023-06-19T02:29:19;5.05;;;4.65;;
16531;SDS011;66872;63.142;14.482;2023-06-19T02:31:45;4.72;;;4.40;;
16531;SDS011;66872;63.142;14.482;2023-06-19T02:34:11;5.00;;;4.60;;
16531;SDS011;66872;63.142;14.482;2023-06-19T02:36:36;5.07;;;4.68;;
16531;SDS011;66872;63.142;14.482;2023-06-19T02:39:05;5.40;;;4.90;;
16531;SDS011;66872;63.142;14.482;2023-06-19T02:41:33;5.28;;;4.88;;
16531;SDS011;66872;63.142;14.482;2023-06-19T02:43:59;5.00;;;4.60;;
16531;SDS011;66872;63.142;14.482;2023-06-19T02:46:24;4.70;;;4.30;;
16531;SDS011;66872;63.142;14.482;2023-06-19T02:48:50;4.90;;;4.50;;
16531;SDS011;66872;63.142;14.482;2023-06-19T02:51:16;5.07;;;4.57;;
16531;SDS011;66872;63.142;14.482;2023-06-19T02:53:41;5.20;;;4.80;;
16531;SDS011;66872;63.142;14.482;2023-06-19T02:56:08;5.63;;;5.13;;
16531;SDS011;66872;63.142;14.482;2023-06-19T02:58:35;5.05;;;4.65;;
16531;SDS011;66872;63.142;14.482;2023-06-19T03:01:02;5.35;;;4.95;;
16531;SDS011;66872;63.142;14.482;2023-06-19T03:03:31;5.30;;;4.90;;
16531;SDS011;66872;63.142;14.482;2023-06-19T03:06:02;5.38;;;4.88;;
16531;SDS011;66872;63.142;14.482;2023-06-19T03:08:33;4.90;;;4.50;;
16531;SDS011;66872;63.142;14.482;2023-06-19T03:10:59;5.15;;;4.75;;
16531;SDS011;66872;63.142;14.482;2023-06-19T03:13:25;4.68;;;4.32;;
16531;SDS011;66872;63.142;14.482;2023-06-19T03:15:50;5.30;;;4.90;;
16531;SDS011;66872;63.142;14.482;2023-06-19T03:18:16;4.93;;;4.53;;
16531;SDS011;66872;63.142;14.482;2023-06-19T03:20:42;4.90;;;4.50;;
16531;SDS011;66872;63.142;14.482;2023-06-19T03:23:07;5.20;;;4.80;;
16531;SDS011;66872;63.142;14.482;2023-06-19T03:25:33;4.70;;;4.32;;
16531;SDS011;66872;63.142;14.482;2023-06-19T03:28:03;5.00;;;4.60;;
16531;SDS011;66872;63.142;14.482;2023-06-19T03:30:29;5.05;;;4.65;;
16531;SDS011;66872;63.142;14.482;2023-06-19T03:32:55;5.15;;;4.72;;
16531;SDS011;66872;63.142;14.482;2023-06-19T03:35:21;4.90;;;4.50;;
16531;SDS011;66872;63.142;14.482;2023-06-19T03:37:46;4.93;;;4.53;;
16531;SDS011;66872;63.142;14.482;2023-06-19T03:40:12;5.18;;;4.78;;
16531;SDS011;66872;63.142;14.482;2023-06-19T03:42:39;5.35;;;4.95;;
16531;SDS011;66872;63.142;14.482;2023-06-19T03:45:05;4.82;;;4.43;;
16531;SDS011;66872;63.142;14.482;2023-06-19T03:47:31;5.20;;;4.80;;
16531;SDS011;66872;63.142;14.482;2023-06-19T03:49:57;5.18;;;4.78;;
16531;SDS011;66872;63.142;14.482;2023-06-19T03:52:22;5.20;;;4.80;;
16531;SDS011;66872;63.142;14.482;2023-06-19T03:54:48;4.90;;;4.50;;
16531;SDS011;66872;63.142;14.482;2023-06-19T03:57:14;5.13;;;4.72;;
16531;SDS011;66872;63.142;14.482;2023-06-19T03:59:40;5.07;;;4.68;;
16531;SDS011;66872;63.142;14.482;2023-06-19T04:02:06;5.25;;;4.85;;
16531;SDS011;66872;63.142;14.482;2023-06-19T04:04:31;5.47;;;5.07;;
16531;SDS011;66872;63.142;14.482;2023-06-19T04:06:57;5.30;;;4.90;;
16531;SDS011;66872;63.142;14.482;2023-06-19T04:09:24;5.18;;;4.78;;
16531;SDS011;66872;63.142;14.482;2023-06-19T04:11:50;5.38;;;4.97;;
16531;SDS011;66872;63.142;14.482;2023-06-19T04:14:16;5.13;;;4.72;;
16531;SDS011;66872;63.142;14.482;2023-06-19T04:16:41;5.53;;;5.03;;
16531;SDS011;66872;63.142;14.482;2023-06-19T04:19:07;5.13;;;4.72;;
16531;SDS011;66872;63.142;14.482;2023-06-19T04:21:33;5.03;;;4.63;;
16531;SDS011;66872;63.142;14.482;2023-06-19T04:23:58;4.95;;;4.55;;
16531;SDS011;66872;63.142;14.482;2023-06-19T04:26:24;5.30;;;4.90;;
16531;SDS011;66872;63.142;14.482;2023-06-19T04:28:50;4.90;;;4.50;;
16531;SDS011;66872;63.142;14.482;2023-06-19T04:31:16;5.05;;;4.65;;
16531;SDS011;66872;63.142;14.482;2023-06-19T04:33:43;5.07;;;4.68;;
16531;SDS011;66872;63.142;14.482;2023-06-19T04:36:09;4.82;;;4.43;;
16531;SDS011;66872;63.142;14.482;2023-06-19T04:38:35;5.07;;;4.68;;
16531;SDS011;66872;63.142;14.482;2023-06-19T04:41:01;4.57;;;4.22;;
16531;SDS011;66872;63.142;14.482;2023-06-19T04:43:26;4.63;;;4.22;;
16531;SDS011;66872;63.142;14.482;2023-06-19T04:45:52;5.30;;;4.90;;
16531;SDS011;66872;63.142;14.482;2023-06-19T04:48:18;4.78;;;4.38;;
16531;SDS011;66872;63.142;14.482;2023-06-19T04:50:44;4.75;;;4.35;;
16531;SDS011;66872;63.142;14.482;2023-06-19T04:53:10;4.57;;;4.20;;
16531;SDS011;66872;63.142;14.482;2023-06-19T04:55:36;4.85;;;4.45;;
16531;SDS011;66872;63.142;14.482;2023-06-19T04:58:02;4.80;;;4.40;;
16531;SDS011;66872;63.142;14.482;2023-06-19T05:00:28;4.93;;;4.53;;
16531;SDS011;66872;63.142;14.482;2023-06-19T05:02:54;4.72;;;4.38;;
16531;SDS011;66872;63.142;14.482;2023-06-19T05:05:24;5.15;;;4.65;;
16531;SDS011;66872;63.142;14.482;2023-06-19T05:07:51;4.80;;;4.45;;
16531;SDS011;66872;63.142;14.482;2023-06-19T05:10:17;4.88;;;4.47;;
16531;SDS011;66872;63.142;14.482;2023-06-19T05:12:44;5.15;;;4.75;;
16531;SDS011;66872;63.142;14.482;2023-06-19T05:15:10;4.55;;;4.22;;
16531;SDS011;66872;63.142;14.482;2023-06-19T05:17:36;4.35;;;4.05;;
16531;SDS011;66872;63.142;14.482;2023-06-19T05:20:04;4.65;;;4.28;;
16531;SDS011;66872;63.142;14.482;2023-06-19T05:22:32;4.80;;;4.40;;
16531;SDS011;66872;63.142;14.482;2023-06-19T05:24:59;5.00;;;4.60;;
16531;SDS011;66872;63.142;14.482;2023-06-19T05:27:25;5.22;;;4.82;;
16531;SDS011;66872;63.142;14.482;2023-06-19T05:29:51;4.85;;;4.45;;
16531;SDS011;66872;63.142;14.482;2023-06-19T05:32:16;4.88;;;4.47;;
16531;SDS011;66872;63.142;14.482;2023-06-19T05:34:42;4.78;;;4.38;;
16531;SDS011;66872;63.142;14.482;2023-06-19T05:37:07;4.97;;;4.55;;
16531;SDS011;66872;63.142;14.482;2023-06-19T05:39:33;4.90;;;4.50;;
16531;SDS011;66872;63.142;14.482;2023-06-19T05:41:59;5.20;;;4.80;;
16531;SDS011;66872;63.142;14.482;2023-06-19T05:44:24;4.85;;;4.45;;
16531;SDS011;66872;63.142;14.482;2023-06-19T05:46:50;5.03;;;4.63;;
16531;SDS011;66872;63.142;14.482;2023-06-19T05:49:16;4.95;;;4.55;;
16531;SDS011;66872;63.142;14.482;2023-06-19T05:51:41;4.85;;;4.45;;
16531;SDS011;66872;63.142;14.482;2023-06-19T05:54:08;4.53;;;4.22;;
16531;SDS011;66872;63.142;14.482;2023-06-19T05:56:34;5.00;;;4.60;;
16531;SDS011;66872;63.142;14.482;2023-06-19T05:59:01;5.00;;;4.60;;
16531;SDS011;66872;63.142;14.482;2023-06-19T06:01:27;5.22;;;4.82;;
16531;SDS011;66872;63.142;14.482;2023-06-19T06:03:54;4.57;;;4.28;;
16531;SDS011;66872;63.142;14.482;2023-06-19T06:06:20;4.43;;;4.13;;
16531;SDS011;66872;63.142;14.482;2023-06-19T06:08:47;4.80;;;4.40;;
16531;SDS011;66872;63.142;14.482;2023-06-19T06:11:13;4.70;;;4.30;;
16531;SDS011;66872;63.142;14.482;2023-06-19T06:13:39;4.15;;;3.85;;
16531;SDS011;66872;63.142;14.482;2023-06-19T06:16:04;4.97;;;4.57;;
16531;SDS011;66872;63.142;14.482;2023-06-19T06:18:30;4.35;;;4.05;;
16531;SDS011;66872;63.142;14.482;2023-06-19T06:20:56;4.72;;;4.43;;
16531;SDS011;66872;63.142;14.482;2023-06-19T06:23:24;5.20;;;4.80;;
16531;SDS011;66872;63.142;14.482;2023-06-19T06:25:49;4.75;;;4.35;;
16531;SDS011;66872;63.142;14.482;2023-06-19T06:28:15;4.38;;;4.07;;
16531;SDS011;66872;63.142;14.482;2023-06-19T06:30:42;4.85;;;4.45;;
16531;SDS011;66872;63.142;14.482;2023-06-19T06:33:08;4.88;;;4.47;;
16531;SDS011;66872;63.142;14.482;2023-06-19T06:35:34;5.10;;;4.70;;
16531;SDS011;66872;63.142;14.482;2023-06-19T06:38:01;4.55;;;4.25;;
16531;SDS011;66872;63.142;14.482;2023-06-19T06:40:27;4.80;;;4.40;;
16531;SDS011;66872;63.142;14.482;2023-06-19T06:42:52;4.70;;;4.30;;
16531;SDS011;66872;63.142;14.482;2023-06-19T06:45:18;4.88;;;4.47;;
16531;SDS011;66872;63.142;14.482;2023-06-19T06:47:44;4.45;;;4.15;;
16531;SDS011;66872;63.142;14.482;2023-06-19T06:50:10;4.90;;;4.50;;
16531;SDS011;66872;63.142;14.482;2023-06-19T06:52:36;5.00;;;4.60;;
16531;SDS011;66872;63.142;14.482;2023-06-19T06:55:02;4.78;;;4.38;;
16531;SDS011;66872;63.142;14.482;2023-06-19T06:57:28;4.57;;;4.18;;
16531;SDS011;66872;63.142;14.482;2023-06-19T06:59:54;4.72;;;4.32;;
16531;SDS011;66872;63.142;14.482;2023-06-19T07:02:20;4.80;;;4.40;;
16531;SDS011;66872;63.142;14.482;2023-06-19T07:04:45;4.68;;;4.28;;
16531;SDS011;66872;63.142;14.482;2023-06-19T07:07:11;4.47;;;4.18;;
16531;SDS011;66872;63.142;14.482;2023-06-19T07:09:37;4.80;;;4.45;;
16531;SDS011;66872;63.142;14.482;2023-06-19T07:12:02;4.35;;;4.05;;
16531;SDS011;66872;63.142;14.482;2023-06-19T07:14:30;4.32;;;4.03;;
16531;SDS011;66872;63.142;14.482;2023-06-19T07:16:55;4.75;;;4.35;;
16531;SDS011;66872;63.142;14.482;2023-06-19T07:19:21;4.38;;;4.07;;
16531;SDS011;66872;63.142;14.482;2023-06-19T07:21:47;4.45;;;4.15;;
16531;SDS011;66872;63.142;14.482;2023-06-19T07:24:14;4.40;;;4.10;;
16531;SDS011;66872;63.142;14.482;2023-06-19T07:26:40;4.60;;;4.30;;
16531;SDS011;66872;63.142;14.482;2023-06-19T07:29:06;4.53;;;4.22;;
16531;SDS011;66872;63.142;14.482;2023-06-19T07:31:31;4.88;;;4.47;;
16531;SDS011;66872;63.142;14.482;2023-06-19T07:33:57;4.38;;;4.07;;
16531;SDS011;66872;63.142;14.482;2023-06-19T07:36:23;4.88;;;4.47;;
16531;SDS011;66872;63.142;14.482;2023-06-19T07:38:48;4.93;;;4.53;;
16531;SDS011;66872;63.142;14.482;2023-06-19T07:41:14;4.53;;;4.18;;
16531;SDS011;66872;63.142;14.482;2023-06-19T07:43:40;5.15;;;4.75;;
16531;SDS011;66872;63.142;14.482;2023-06-19T07:46:05;4.68;;;4.38;;
16531;SDS011;66872;63.142;14.482;2023-06-19T07:48:31;4.30;;;4.00;;
16531;SDS011;66872;63.142;14.482;2023-06-19T07:50:57;4.30;;;4.00;;
16531;SDS011;66872;63.142;14.482;2023-06-19T07:53:22;4.22;;;3.92;;
16531;SDS011;66872;63.142;14.482;2023-06-19T07:55:48;4.95;;;4.55;;
16531;SDS011;66872;63.142;14.482;2023-06-19T07:58:14;4.55;;;4.25;;
16531;SDS011;66872;63.142;14.482;2023-06-19T08:00:39;4.38;;;4.07;;
16531;SDS011;66872;63.142;14.482;2023-06-19T08:03:05;4.60;;;4.28;;
16531;SDS011;66872;63.142;14.482;2023-06-19T08:05:31;4.50;;;4.20;;
16531;SDS011;66872;63.142;14.482;2023-06-19T08:07:56;4.80;;;4.40;;
16531;SDS011;66872;63.142;14.482;2023-06-19T08:10:24;4.50;;;4.20;;
16531;SDS011;66872;63.142;14.482;2023-06-19T08:12:49;4.40;;;4.10;;
16531;SDS011;66872;63.142;14.482;2023-06-19T08:15:15;4.60;;;4.30;;
16531;SDS011;66872;63.142;14.482;2023-06-19T08:17:41;4.40;;;4.10;;
16531;SDS011;66872;63.142;14.482;2023-06-19T08:20:07;4.82;;;4.43;;
16531;SDS011;66872;63.142;14.482;2023-06-19T08:22:34;4.57;;;4.28;;
16531;SDS011;66872;63.142;14.482;2023-06-19T08:25:00;4.65;;;4.35;;
16531;SDS011;66872;63.142;14.482;2023-06-19T08:27:26;4.63;;;4.22;;
16531;SDS011;66872;63.142;14.482;2023-06-19T08:29:52;4.45;;;4.15;;
16531;SDS011;66872;63.142;14.482;2023-06-19T08:32:17;4.72;;;4.32;;
16531;SDS011;66872;63.142;14.482;2023-06-19T08:34:44;4.75;;;4.43;;
16531;SDS011;66872;63.142;14.482;2023-06-19T08:37:10;4.53;;;4.22;;
16531;SDS011;66872;63.142;14.482;2023-06-19T08:39:35;4.25;;;3.95;;
16531;SDS011;66872;63.142;14.482;2023-06-19T08:42:03;4.55;;;4.15;;
16531;SDS011;66872;63.142;14.482;2023-06-19T08:44:33;4.32;;;4.03;;
16531;SDS011;66872;63.142;14.482;2023-06-19T08:46:59;4.47;;;4.18;;
16531;SDS011;66872;63.142;14.482;2023-06-19T08:49:29;4.57;;;4.20;;
16531;SDS011;66872;63.142;14.482;2023-06-19T08:51:55;4.50;;;4.20;;
16531;SDS011;66872;63.142;14.482;2023-06-19T08:54:20;4.90;;;4.50;;
16531;SDS011;66872;63.142;14.482;2023-06-19T08:56:46;4.90;;;4.50;;
16531;SDS011;66872;63.142;14.482;2023-06-19T08:59:13;4.50;;;4.10;;
16531;SDS011;66872;63.142;14.482;2023-06-19T09:01:45;4.75;;;4.45;;
16531;SDS011;66872;63.142;14.482;2023-06-19T09:04:17;4.72;;;4.32;;
16531;SDS011;66872;63.142;14.482;2023-06-19T09:06:58;4.72;;;4.35;;
16531;SDS011;66872;63.142;14.482;2023-06-19T09:09:27;4.90;;;4.50;;
16531;SDS011;66872;63.142;14.482;2023-06-19T09:16:59;4.60;;;4.30;;
16531;SDS011;66872;63.142;14.482;2023-06-19T09:19:25;4.45;;;4.15;;
16531;SDS011;66872;63.142;14.482;2023-06-19T09:21:51;4.70;;;4.35;;
16531;SDS011;66872;63.142;14.482;2023-06-19T09:24:17;4.85;;;4.45;;
16531;SDS011;66872;63.142;14.482;2023-06-19T09:26:42;4.80;;;4.45;;
16531;SDS011;66872;63.142;14.482;2023-06-19T09:29:12;4.70;;;4.40;;
16531;SDS011;66872;63.142;14.482;2023-06-19T09:31:38;4.88;;;4.47;;
16531;SDS011;66872;63.142;14.482;2023-06-19T09:34:06;5.22;;;4.82;;
16531;SDS011;66872;63.142;14.482;2023-06-19T09:36:32;5.00;;;4.60;;
16531;SDS011;66872;63.142;14.482;2023-06-19T09:38:59;4.75;;;4.35;;
16531;SDS011;66872;63.142;14.482;2023-06-19T09:41:26;5.15;;;4.75;;
16531;SDS011;66872;63.142;14.482;2023-06-19T09:43:57;5.70;;;5.20;;
16531;SDS011;66872;63.142;14.482;2023-06-19T09:46:31;4.90;;;4.50;;
16531;SDS011;66872;63.142;14.482;2023-06-19T09:49:01;5.35;;;4.95;;
16531;SDS011;66872;63.142;14.482;2023-06-19T09:51:33;12.10;;;7.03;;
16531;SDS011;66872;63.142;14.482;2023-06-19T09:54:02;12.60;;;8.05;;
16531;SDS011;66872;63.142;14.482;2023-06-19T09:56:29;9.98;;;8.07;;
16531;SDS011;66872;63.142;14.482;2023-06-19T09:58:57;14.10;;;8.45;;
16531;SDS011;66872;63.142;14.482;2023-06-19T10:01:25;13.43;;;7.68;;
16531;SDS011;66872;63.142;14.482;2023-06-19T10:04:05;12.75;;;8.43;;
16531;SDS011;66872;63.142;14.482;2023-06-19T10:06:32;12.10;;;9.05;;
16531;SDS011;66872;63.142;14.482;2023-06-19T10:09:08;12.02;;;9.20;;
16531;SDS011;66872;63.142;14.482;2023-06-19T10:11:45;10.45;;;8.80;;
16531;SDS011;66872;63.142;14.482;2023-06-19T10:14:12;12.18;;;9.70;;
16531;SDS011;66872;63.142;14.482;2023-06-19T10:16:38;14.57;;;10.40;;
16531;SDS011;66872;63.142;14.482;2023-06-19T10:19:13;14.48;;;10.75;;
16531;SDS011;66872;63.142;14.482;2023-06-19T10:21:46;10.90;;;9.80;;
16531;SDS011;66872;63.142;14.482;2023-06-19T10:24:16;10.82;;;9.73;;
16531;SDS011;66872;63.142;14.482;2023-06-19T10:26:54;11.95;;;10.13;;
16531;SDS011;66872;63.142;14.482;2023-06-19T10:29:24;11.57;;;10.38;;
16531;SDS011;66872;63.142;14.482;2023-06-19T10:31:50;10.55;;;9.45;;
16531;SDS011;66872;63.142;14.482;2023-06-19T10:34:16;11.73;;;10.63;;
16531;SDS011;66872;63.142;14.482;2023-06-19T10:36:42;13.25;;;10.35;;
16531;SDS011;66872;63.142;14.482;2023-06-19T10:39:07;11.30;;;10.20;;
16531;SDS011;66872;63.142;14.482;2023-06-19T10:41:34;11.82;;;10.80;;
16531;SDS011;66872;63.142;14.482;2023-06-19T10:44:03;12.40;;;10.57;;
16531;SDS011;66872;63.142;14.482;2023-06-19T10:46:31;12.20;;;10.63;;
16531;SDS011;66872;63.142;14.482;2023-06-19T10:48:59;12.57;;;11.07;;
16531;SDS011;66872;63.142;14.482;2023-06-19T10:51:35;12.57;;;10.30;;
16531;SDS011;66872;63.142;14.482;2023-06-19T10:54:06;12.63;;;11.32;;
16531;SDS011;66872;63.142;14.482;2023-06-19T10:56:32;11.98;;;10.88;;
16531;SDS011;66872;63.142;14.482;2023-06-19T10:59:03;11.63;;;10.52;;
16531;SDS011;66872;63.142;14.482;2023-06-19T11:01:37;12.68;;;11.48;;
16531;SDS011;66872;63.142;14.482;2023-06-19T11:04:07;11.68;;;10.52;;
16531;SDS011;66872;63.142;14.482;2023-06-19T11:06:34;11.35;;;10.25;;
16531;SDS011;66872;63.142;14.482;2023-06-19T11:09:01;11.35;;;10.10;;
16531;SDS011;66872;63.142;14.482;2023-06-19T11:11:39;11.73;;;10.63;;
16531;SDS011;66872;63.142;14.482;2023-06-19T11:14:07;10.95;;;9.95;;
16531;SDS011;66872;63.142;14.482;2023-06-19T11:16:33;11.93;;;10.88;;
16531;SDS011;66872;63.142;14.482;2023-06-19T11:18:59;11.40;;;10.32;;
16531;SDS011;66872;63.142;14.482;2023-06-19T11:21:32;11.02;;;9.82;;
16531;SDS011;66872;63.142;14.482;2023-06-19T11:24:00;11.40;;;10.23;;
16531;SDS011;66872;63.142;14.482;2023-06-19T11:26:26;11.25;;;10.23;;
16531;SDS011;66872;63.142;14.482;2023-06-19T11:28:52;11.27;;;10.18;;
16531;SDS011;66872;63.142;14.482;2023-06-19T11:31:24;10.95;;;9.95;;
16531;SDS011;66872;63.142;14.482;2023-06-19T11:33:59;11.52;;;10.43;;
16531;SDS011;66872;63.142;14.482;2023-06-19T11:36:27;11.57;;;10.38;;
16531;SDS011;66872;63.142;14.482;2023-06-19T11:38:54;11.43;;;10.45;;
16531;SDS011;66872;63.142;14.482;2023-06-19T11:41:29;11.88;;;10.75;;
16531;SDS011;66872;63.142;14.482;2023-06-19T11:43:58;11.35;;;10.35;;
16531;SDS011;66872;63.142;14.482;2023-06-19T11:46:36;10.85;;;9.85;;
16531;SDS011;66872;63.142;14.482;2023-06-19T11:49:15;10.90;;;9.80;;
16531;SDS011;66872;63.142;14.482;2023-06-19T11:51:43;10.90;;;10.00;;
16531;SDS011;66872;63.142;14.482;2023-06-19T11:54:09;10.27;;;9.38;;
16531;SDS011;66872;63.142;14.482;2023-06-19T11:56:35;10.20;;;9.32;;
16531;SDS011;66872;63.142;14.482;2023-06-19T11:59:02;11.00;;;10.10;;
16531;SDS011;66872;63.142;14.482;2023-06-19T12:01:28;10.57;;;9.63;;
16531;SDS011;66872;63.142;14.482;2023-06-19T12:03:55;11.15;;;10.15;;
16531;SDS011;66872;63.142;14.482;2023-06-19T12:06:20;11.32;;;10.15;;
16531;SDS011;66872;63.142;14.482;2023-06-19T12:08:46;10.68;;;9.70;;
16531;SDS011;66872;63.142;14.482;2023-06-19T12:11:12;10.55;;;9.60;;
16531;SDS011;66872;63.142;14.482;2023-06-19T12:13:39;10.43;;;9.52;;
16531;SDS011;66872;63.142;14.482;2023-06-19T12:16:06;10.75;;;9.75;;
16531;SDS011;66872;63.142;14.482;2023-06-19T12:18:32;10.82;;;9.82;;
16531;SDS011;66872;63.142;14.482;2023-06-19T12:20:58;9.90;;;9.15;;
16531;SDS011;66872;63.142;14.482;2023-06-19T12:23:23;10.73;;;9.82;;
16531;SDS011;66872;63.142;14.482;2023-06-19T12:25:49;10.30;;;9.30;;
16531;SDS011;66872;63.142;14.482;2023-06-19T12:28:15;10.32;;;9.35;;
16531;SDS011;66872;63.142;14.482;2023-06-19T12:30:43;10.07;;;9.27;;
16531;SDS011;66872;63.142;14.482;2023-06-19T12:33:09;10.07;;;9.18;;
16531;SDS011;66872;63.142;14.482;2023-06-19T12:35:40;10.40;;;9.50;;
16531;SDS011;66872;63.142;14.482;2023-06-19T12:38:06;9.73;;;8.93;;
16531;SDS011;66872;63.142;14.482;2023-06-19T12:40:33;9.77;;;8.98;;
16531;SDS011;66872;63.142;14.482;2023-06-19T12:42:59;9.73;;;8.82;;
16531;SDS011;66872;63.142;14.482;2023-06-19T12:45:24;9.77;;;8.90;;
16531;SDS011;66872;63.142;14.482;2023-06-19T12:47:50;10.65;;;9.65;;
16531;SDS011;66872;63.142;14.482;2023-06-19T12:50:16;10.60;;;9.70;;
16531;SDS011;66872;63.142;14.482;2023-06-19T12:52:41;10.85;;;9.95;;
16531;SDS011;66872;63.142;14.482;2023-06-19T12:55:07;10.18;;;9.25;;
16531;SDS011;66872;63.142;14.482;2023-06-19T12:57:33;10.13;;;9.27;;
16531;SDS011;66872;63.142;14.482;2023-06-19T12:59:59;9.63;;;8.80;;
16531;SDS011;66872;63.142;14.482;2023-06-19T13:02:24;9.55;;;8.75;;
16531;SDS011;66872;63.142;14.482;2023-06-19T13:04:51;9.88;;;9.07;;
16531;SDS011;66872;63.142;14.482;2023-06-19T13:07:17;10.30;;;9.40;;
16531;SDS011;66872;63.142;14.482;2023-06-19T13:09:43;9.65;;;8.85;;
16531;SDS011;66872;63.142;14.482;2023-06-19T13:12:09;9.77;;;8.95;;
16531;SDS011;66872;63.142;14.482;2023-06-19T13:14:34;9.20;;;8.50;;
16531;SDS011;66872;63.142;14.482;2023-06-19T13:17:00;9.68;;;8.88;;
16531;SDS011;66872;63.142;14.482;2023-06-19T13:19:26;9.95;;;9.15;;
16531;SDS011;66872;63.142;14.482;2023-06-19T13:21:52;9.80;;;9.00;;
16531;SDS011;66872;63.142;14.482;2023-06-19T13:24:17;9.45;;;8.68;;
16531;SDS011;66872;63.142;14.482;2023-06-19T13:26:43;9.60;;;8.70;;
16531;SDS011;66872;63.142;14.482;2023-06-19T13:29:10;9.25;;;8.55;;
16531;SDS011;66872;63.142;14.482;2023-06-19T13:31:36;9.52;;;8.73;;
16531;SDS011;66872;63.142;14.482;2023-06-19T13:34:02;9.70;;;8.90;;
16531;SDS011;66872;63.142;14.482;2023-06-19T13:36:28;10.48;;;9.48;;
16531;SDS011;66872;63.142;14.482;2023-06-19T13:38:54;9.98;;;9.13;;
16531;SDS011;66872;63.142;14.482;2023-06-19T13:41:19;9.50;;;8.60;;
16531;SDS011;66872;63.142;14.482;2023-06-19T13:43:45;9.38;;;8.57;;
16531;SDS011;66872;63.142;14.482;2023-06-19T13:46:11;9.55;;;8.75;;
16531;SDS011;66872;63.142;14.482;2023-06-19T13:48:37;9.90;;;9.05;;
16531;SDS011;66872;63.142;14.482;2023-06-19T13:51:02;9.38;;;8.57;;
16531;SDS011;66872;63.142;14.482;2023-06-19T13:53:28;9.32;;;8.52;;
16531;SDS011;66872;63.142;14.482;2023-06-19T13:55:54;9.48;;;8.57;;
16531;SDS011;66872;63.142;14.482;2023-06-19T13:58:20;8.85;;;8.10;;
16531;SDS011;66872;63.142;14.482;2023-06-19T14:00:46;9.02;;;8.32;;
16531;SDS011;66872;63.142;14.482;2023-06-19T14:03:12;9.35;;;8.55;;
16531;SDS011;66872;63.142;14.482;2023-06-19T14:05:39;12.13;;;8.50;;
16531;SDS011;66872;63.142;14.482;2023-06-19T14:08:05;9.25;;;8.45;;
16531;SDS011;66872;63.142;14.482;2023-06-19T14:10:30;9.55;;;8.85;;
16531;SDS011;66872;63.142;14.482;2023-06-19T14:12:58;9.40;;;8.65;;
16531;SDS011;66872;63.142;14.482;2023-06-19T14:15:23;9.30;;;8.50;;
16531;SDS011;66872;63.142;14.482;2023-06-19T14:17:49;9.15;;;8.45;;
16531;SDS011;66872;63.142;14.482;2023-06-19T14:20:15;8.52;;;7.82;;
16531;SDS011;66872;63.142;14.482;2023-06-19T14:22:40;9.02;;;8.30;;
16531;SDS011;66872;63.142;14.482;2023-06-19T14:25:06;9.73;;;8.93;;
16531;SDS011;66872;63.142;14.482;2023-06-19T14:27:32;8.60;;;7.90;;
16531;SDS011;66872;63.142;14.482;2023-06-19T14:29:58;8.55;;;7.85;;
16531;SDS011;66872;63.142;14.482;2023-06-19T14:32:24;8.63;;;7.93;;
16531;SDS011;66872;63.142;14.482;2023-06-19T14:34:50;8.93;;;8.13;;